Fray Luis Beltran, Argentina
Current Conditions -  °F | °C
As of 8:00 PM on Tuesday 27 Jan 2015 (Local Time) from SAME Reporting Station
Few Clouds Few Clouds  
Wind Chill: 34°   Ceiling: Unl
Heat Index: 34°   Visibility: 6mi
Dew Point: 10°   Wind: 9mph
Humidity: 23%   Direction: 360°N
Pressure: 29.65"   Gusts: NA
Location:  33.02°S, 68.65°W
Report Text: SAME 272300Z 36008KT 9999 FEW040 FEW050CB 34/10 Q1004
Loading
Personal Weather Stations






























Interactive Weather Map New forecast layout! Learn more

10-Day Weather Forecast

Advertisements
Track Severe Weather on mobile